NC89 weather

Pungo District Hospital Heliport
Belhaven, North Carolina, United States

Public forecast

Using degrees Fahrenheit for public forecast. Weather courtesy of forecast.io.

METAR (pilot weather report)

Closest report is Warren Field, 21.2 nm (39.3 km) W. Retrieved 2019/04/20 10:20 UTC (0 seconds ago):

KOCW 201020Z AUTO 22009KT 10SM SCT042 BKN080 16/13 A2968 RMK AO2 T01600128

TAF (pilot weather forecast)

Closest forecast is Coastal Carolina Regional Airport, 35.1 nm (65.0 km) SW. Retrieved 2019/04/20 06:24 UTC (4 hours ago):

TAF KEWN 200521Z 2006/2106 17012G19KT P6SM VCSH SCT015 BKN060 FM200800 19013G21KT P6SM VCSH BKN025 FM201200 22010G16KT P6SM FEW250 FM210200 21007KT P6SM FEW250